sensor_id;sensor_type;location;lat;lon;timestamp;P1;durP1;ratioP1;P2;durP2;ratioP2
23561;SDS011;11959;49.418;8.728;2023-11-21T00:00:12;5.47;;;2.20;;
23561;SDS011;11959;49.418;8.728;2023-11-21T00:02:39;5.55;;;1.95;;
23561;SDS011;11959;49.418;8.728;2023-11-21T00:05:09;4.93;;;2.20;;
23561;SDS011;11959;49.418;8.728;2023-11-21T00:07:36;4.65;;;2.35;;
23561;SDS011;11959;49.418;8.728;2023-11-21T00:10:02;5.72;;;2.20;;
23561;SDS011;11959;49.418;8.728;2023-11-21T00:12:30;4.60;;;1.90;;
23561;SDS011;11959;49.418;8.728;2023-11-21T00:14:56;9.65;;;2.88;;
23561;SDS011;11959;49.418;8.728;2023-11-21T00:17:22;5.32;;;2.17;;
23561;SDS011;11959;49.418;8.728;2023-11-21T00:19:49;6.50;;;2.38;;
23561;SDS011;11959;49.418;8.728;2023-11-21T00:22:17;5.88;;;2.30;;
23561;SDS011;11959;49.418;8.728;2023-11-21T00:24:43;9.23;;;2.70;;
23561;SDS011;11959;49.418;8.728;2023-11-21T00:27:08;5.38;;;2.58;;
23561;SDS011;11959;49.418;8.728;2023-11-21T00:29:34;6.72;;;2.63;;
23561;SDS011;11959;49.418;8.728;2023-11-21T00:32:00;7.50;;;2.40;;
23561;SDS011;11959;49.418;8.728;2023-11-21T00:34:25;7.03;;;2.67;;
23561;SDS011;11959;49.418;8.728;2023-11-21T00:36:51;8.18;;;2.83;;
23561;SDS011;11959;49.418;8.728;2023-11-21T00:39:17;7.30;;;2.78;;
23561;SDS011;11959;49.418;8.728;2023-11-21T00:41:43;6.72;;;2.72;;
23561;SDS011;11959;49.418;8.728;2023-11-21T00:44:10;6.85;;;2.85;;
23561;SDS011;11959;49.418;8.728;2023-11-21T00:46:36;7.80;;;2.50;;
23561;SDS011;11959;49.418;8.728;2023-11-21T00:49:01;7.20;;;2.95;;
23561;SDS011;11959;49.418;8.728;2023-11-21T00:51:29;6.00;;;2.63;;
23561;SDS011;11959;49.418;8.728;2023-11-21T00:53:55;4.85;;;2.50;;
23561;SDS011;11959;49.418;8.728;2023-11-21T00:56:20;6.75;;;2.75;;
23561;SDS011;11959;49.418;8.728;2023-11-21T00:58:46;7.13;;;3.10;;
23561;SDS011;11959;49.418;8.728;2023-11-21T01:01:15;6.72;;;2.58;;
23561;SDS011;11959;49.418;8.728;2023-11-21T01:03:41;9.63;;;2.90;;
23561;SDS011;11959;49.418;8.728;2023-11-21T01:06:07;7.32;;;3.20;;
23561;SDS011;11959;49.418;8.728;2023-11-21T01:08:34;5.75;;;2.38;;
23561;SDS011;11959;49.418;8.728;2023-11-21T01:11:00;9.73;;;3.35;;
23561;SDS011;11959;49.418;8.728;2023-11-21T01:13:27;7.78;;;3.00;;
23561;SDS011;11959;49.418;8.728;2023-11-21T01:15:53;6.85;;;3.00;;
23561;SDS011;11959;49.418;8.728;2023-11-21T01:18:19;7.70;;;2.78;;
23561;SDS011;11959;49.418;8.728;2023-11-21T01:20:44;9.82;;;3.00;;
23561;SDS011;11959;49.418;8.728;2023-11-21T01:23:12;10.00;;;2.60;;
23561;SDS011;11959;49.418;8.728;2023-11-21T01:25:40;5.03;;;2.85;;
23561;SDS011;11959;49.418;8.728;2023-11-21T01:28:06;7.70;;;3.08;;
23561;SDS011;11959;49.418;8.728;2023-11-21T01:30:32;5.80;;;3.30;;
23561;SDS011;11959;49.418;8.728;2023-11-21T01:32:58;6.18;;;2.90;;
23561;SDS011;11959;49.418;8.728;2023-11-21T01:35:24;7.90;;;2.58;;
23561;SDS011;11959;49.418;8.728;2023-11-21T01:37:49;9.02;;;2.90;;
23561;SDS011;11959;49.418;8.728;2023-11-21T01:40:15;8.90;;;3.13;;
23561;SDS011;11959;49.418;8.728;2023-11-21T01:42:41;9.50;;;2.97;;
23561;SDS011;11959;49.418;8.728;2023-11-21T01:45:08;5.47;;;2.40;;
23561;SDS011;11959;49.418;8.728;2023-11-21T01:47:37;7.88;;;2.80;;
23561;SDS011;11959;49.418;8.728;2023-11-21T01:50:03;7.25;;;2.70;;
23561;SDS011;11959;49.418;8.728;2023-11-21T01:52:31;8.90;;;3.03;;
23561;SDS011;11959;49.418;8.728;2023-11-21T01:54:58;10.35;;;3.53;;
23561;SDS011;11959;49.418;8.728;2023-11-21T01:57:25;6.80;;;3.00;;
23561;SDS011;11959;49.418;8.728;2023-11-21T01:59:51;8.65;;;2.53;;
23561;SDS011;11959;49.418;8.728;2023-11-21T02:02:19;9.95;;;3.15;;
23561;SDS011;11959;49.418;8.728;2023-11-21T02:04:44;8.30;;;2.75;;
23561;SDS011;11959;49.418;8.728;2023-11-21T02:07:10;6.53;;;2.78;;
23561;SDS011;11959;49.418;8.728;2023-11-21T02:09:36;7.10;;;3.30;;
23561;SDS011;11959;49.418;8.728;2023-11-21T02:12:07;6.03;;;2.70;;
23561;SDS011;11959;49.418;8.728;2023-11-21T02:14:35;4.70;;;3.00;;
23561;SDS011;11959;49.418;8.728;2023-11-21T02:17:01;5.00;;;2.70;;
23561;SDS011;11959;49.418;8.728;2023-11-21T02:19:28;5.05;;;2.40;;
23561;SDS011;11959;49.418;8.728;2023-11-21T02:21:56;6.32;;;2.80;;
23561;SDS011;11959;49.418;8.728;2023-11-21T02:24:31;5.30;;;2.45;;
23561;SDS011;11959;49.418;8.728;2023-11-21T02:26:57;4.70;;;2.97;;
23561;SDS011;11959;49.418;8.728;2023-11-21T02:29:23;7.45;;;2.45;;
23561;SDS011;11959;49.418;8.728;2023-11-21T02:31:53;4.10;;;2.20;;
23561;SDS011;11959;49.418;8.728;2023-11-21T02:34:19;6.25;;;2.53;;
23561;SDS011;11959;49.418;8.728;2023-11-21T02:36:46;4.75;;;2.83;;
23561;SDS011;11959;49.418;8.728;2023-11-21T02:39:15;3.40;;;2.08;;
23561;SDS011;11959;49.418;8.728;2023-11-21T02:41:41;5.35;;;2.92;;
23561;SDS011;11959;49.418;8.728;2023-11-21T02:44:08;4.72;;;2.75;;
23561;SDS011;11959;49.418;8.728;2023-11-21T02:46:34;7.07;;;2.65;;
23561;SDS011;11959;49.418;8.728;2023-11-21T02:49:01;6.82;;;2.53;;
23561;SDS011;11959;49.418;8.728;2023-11-21T02:51:27;4.97;;;2.58;;
23561;SDS011;11959;49.418;8.728;2023-11-21T02:53:53;5.55;;;2.47;;
23561;SDS011;11959;49.418;8.728;2023-11-21T02:56:19;5.95;;;2.70;;
23561;SDS011;11959;49.418;8.728;2023-11-21T02:58:45;5.40;;;2.50;;
23561;SDS011;11959;49.418;8.728;2023-11-21T03:01:10;5.35;;;2.25;;
23561;SDS011;11959;49.418;8.728;2023-11-21T03:03:39;6.57;;;2.60;;
23561;SDS011;11959;49.418;8.728;2023-11-21T03:06:08;5.43;;;2.42;;
23561;SDS011;11959;49.418;8.728;2023-11-21T03:08:34;4.80;;;2.30;;
23561;SDS011;11959;49.418;8.728;2023-11-21T03:10:59;7.70;;;2.75;;
23561;SDS011;11959;49.418;8.728;2023-11-21T03:13:25;3.80;;;2.00;;
23561;SDS011;11959;49.418;8.728;2023-11-21T03:15:51;3.10;;;1.95;;
23561;SDS011;11959;49.418;8.728;2023-11-21T03:18:17;5.07;;;1.90;;
23561;SDS011;11959;49.418;8.728;2023-11-21T03:20:43;3.78;;;1.55;;
23561;SDS011;11959;49.418;8.728;2023-11-21T03:23:11;2.58;;;1.35;;
23561;SDS011;11959;49.418;8.728;2023-11-21T03:25:38;3.63;;;1.65;;
23561;SDS011;11959;49.418;8.728;2023-11-21T03:28:04;2.88;;;1.38;;
23561;SDS011;11959;49.418;8.728;2023-11-21T03:30:29;4.32;;;1.38;;
23561;SDS011;11959;49.418;8.728;2023-11-21T03:32:55;2.63;;;1.70;;
23561;SDS011;11959;49.418;8.728;2023-11-21T03:35:21;1.50;;;1.30;;
23561;SDS011;11959;49.418;8.728;2023-11-21T03:37:48;3.95;;;1.60;;
23561;SDS011;11959;49.418;8.728;2023-11-21T03:40:14;2.30;;;1.30;;
23561;SDS011;11959;49.418;8.728;2023-11-21T03:42:39;1.55;;;1.13;;
23561;SDS011;11959;49.418;8.728;2023-11-21T03:45:06;4.53;;;1.45;;
23561;SDS011;11959;49.418;8.728;2023-11-21T03:47:32;2.40;;;1.60;;
23561;SDS011;11959;49.418;8.728;2023-11-21T03:49:57;1.38;;;1.25;;
23561;SDS011;11959;49.418;8.728;2023-11-21T03:52:24;3.08;;;1.30;;
23561;SDS011;11959;49.418;8.728;2023-11-21T03:54:50;3.17;;;1.77;;
23561;SDS011;11959;49.418;8.728;2023-11-21T03:57:16;3.28;;;1.40;;
23561;SDS011;11959;49.418;8.728;2023-11-21T03:59:42;4.05;;;1.73;;
23561;SDS011;11959;49.418;8.728;2023-11-21T04:02:08;4.50;;;1.90;;
23561;SDS011;11959;49.418;8.728;2023-11-21T04:04:34;3.85;;;1.83;;
23561;SDS011;11959;49.418;8.728;2023-11-21T04:07:00;4.75;;;2.08;;
23561;SDS011;11959;49.418;8.728;2023-11-21T04:09:26;4.18;;;2.15;;
23561;SDS011;11959;49.418;8.728;2023-11-21T04:11:52;4.38;;;1.98;;
23561;SDS011;11959;49.418;8.728;2023-11-21T04:14:18;3.90;;;1.92;;
23561;SDS011;11959;49.418;8.728;2023-11-21T04:16:44;4.55;;;2.25;;
23561;SDS011;11959;49.418;8.728;2023-11-21T04:19:10;5.32;;;2.13;;
23561;SDS011;11959;49.418;8.728;2023-11-21T04:21:36;4.22;;;2.20;;
23561;SDS011;11959;49.418;8.728;2023-11-21T04:24:03;3.67;;;2.10;;
23561;SDS011;11959;49.418;8.728;2023-11-21T04:26:29;3.33;;;2.40;;
23561;SDS011;11959;49.418;8.728;2023-11-21T04:28:54;4.65;;;2.50;;
23561;SDS011;11959;49.418;8.728;2023-11-21T04:31:20;5.95;;;2.40;;
23561;SDS011;11959;49.418;8.728;2023-11-21T04:33:46;5.32;;;2.45;;
23561;SDS011;11959;49.418;8.728;2023-11-21T04:36:11;2.35;;;2.00;;
23561;SDS011;11959;49.418;8.728;2023-11-21T04:38:37;5.25;;;3.08;;
23561;SDS011;11959;49.418;8.728;2023-11-21T04:41:03;3.88;;;2.33;;
23561;SDS011;11959;49.418;8.728;2023-11-21T04:43:29;3.72;;;2.67;;
23561;SDS011;11959;49.418;8.728;2023-11-21T04:45:54;4.28;;;2.65;;
23561;SDS011;11959;49.418;8.728;2023-11-21T04:48:20;3.65;;;2.60;;
23561;SDS011;11959;49.418;8.728;2023-11-21T04:50:46;3.88;;;2.85;;
23561;SDS011;11959;49.418;8.728;2023-11-21T04:53:11;4.57;;;2.70;;
23561;SDS011;11959;49.418;8.728;2023-11-21T04:55:39;5.53;;;3.08;;
23561;SDS011;11959;49.418;8.728;2023-11-21T04:58:06;4.85;;;2.60;;
23561;SDS011;11959;49.418;8.728;2023-11-21T05:00:33;5.60;;;2.80;;
23561;SDS011;11959;49.418;8.728;2023-11-21T05:02:59;4.45;;;3.00;;
23561;SDS011;11959;49.418;8.728;2023-11-21T05:05:26;3.90;;;2.85;;
23561;SDS011;11959;49.418;8.728;2023-11-21T05:07:52;5.15;;;2.72;;
23561;SDS011;11959;49.418;8.728;2023-11-21T05:10:18;3.75;;;2.63;;
23561;SDS011;11959;49.418;8.728;2023-11-21T05:12:44;7.43;;;3.17;;
23561;SDS011;11959;49.418;8.728;2023-11-21T05:15:14;5.30;;;3.40;;
23561;SDS011;11959;49.418;8.728;2023-11-21T05:17:40;6.47;;;3.20;;
23561;SDS011;11959;49.418;8.728;2023-11-21T05:20:12;4.88;;;3.45;;
23561;SDS011;11959;49.418;8.728;2023-11-21T05:22:39;4.15;;;2.70;;
23561;SDS011;11959;49.418;8.728;2023-11-21T05:25:07;3.80;;;3.08;;
23561;SDS011;11959;49.418;8.728;2023-11-21T05:27:33;4.30;;;3.30;;
23561;SDS011;11959;49.418;8.728;2023-11-21T05:30:00;4.82;;;3.00;;
23561;SDS011;11959;49.418;8.728;2023-11-21T05:32:36;3.80;;;3.10;;
23561;SDS011;11959;49.418;8.728;2023-11-21T05:35:02;4.70;;;3.20;;
23561;SDS011;11959;49.418;8.728;2023-11-21T05:37:29;5.57;;;3.40;;
23561;SDS011;11959;49.418;8.728;2023-11-21T05:39:54;6.05;;;3.35;;
23561;SDS011;11959;49.418;8.728;2023-11-21T05:42:24;5.60;;;3.90;;
23561;SDS011;11959;49.418;8.728;2023-11-21T05:44:50;5.18;;;3.58;;
23561;SDS011;11959;49.418;8.728;2023-11-21T05:47:16;6.45;;;4.25;;
23561;SDS011;11959;49.418;8.728;2023-11-21T05:49:42;7.45;;;4.40;;
23561;SDS011;11959;49.418;8.728;2023-11-21T05:52:07;5.88;;;4.10;;
23561;SDS011;11959;49.418;8.728;2023-11-21T05:54:33;6.75;;;4.10;;
23561;SDS011;11959;49.418;8.728;2023-11-21T05:56:59;6.07;;;3.88;;
23561;SDS011;11959;49.418;8.728;2023-11-21T05:59:25;4.80;;;4.10;;
23561;SDS011;11959;49.418;8.728;2023-11-21T06:01:50;4.85;;;3.60;;
23561;SDS011;11959;49.418;8.728;2023-11-21T06:04:17;6.43;;;4.10;;
23561;SDS011;11959;49.418;8.728;2023-11-21T06:06:43;7.43;;;4.25;;
23561;SDS011;11959;49.418;8.728;2023-11-21T06:09:09;5.68;;;4.20;;
23561;SDS011;11959;49.418;8.728;2023-11-21T06:11:35;6.53;;;4.00;;
23561;SDS011;11959;49.418;8.728;2023-11-21T06:14:01;6.20;;;4.15;;
23561;SDS011;11959;49.418;8.728;2023-11-21T06:16:27;9.20;;;4.20;;
23561;SDS011;11959;49.418;8.728;2023-11-21T06:18:53;7.65;;;4.05;;
23561;SDS011;11959;49.418;8.728;2023-11-21T06:21:18;6.25;;;4.18;;
23561;SDS011;11959;49.418;8.728;2023-11-21T06:23:44;6.47;;;4.20;;
23561;SDS011;11959;49.418;8.728;2023-11-21T06:26:10;6.50;;;4.63;;
23561;SDS011;11959;49.418;8.728;2023-11-21T06:28:35;6.40;;;5.03;;
23561;SDS011;11959;49.418;8.728;2023-11-21T06:31:01;7.63;;;4.90;;
23561;SDS011;11959;49.418;8.728;2023-11-21T06:33:30;8.05;;;5.32;;
23561;SDS011;11959;49.418;8.728;2023-11-21T06:35:57;6.97;;;4.32;;
23561;SDS011;11959;49.418;8.728;2023-11-21T06:38:22;5.70;;;4.95;;
23561;SDS011;11959;49.418;8.728;2023-11-21T06:40:48;6.10;;;4.70;;
23561;SDS011;11959;49.418;8.728;2023-11-21T06:43:14;6.95;;;4.85;;
23561;SDS011;11959;49.418;8.728;2023-11-21T06:45:40;7.60;;;5.53;;
23561;SDS011;11959;49.418;8.728;2023-11-21T06:48:06;6.90;;;5.30;;
23561;SDS011;11959;49.418;8.728;2023-11-21T06:50:32;7.85;;;5.82;;
23561;SDS011;11959;49.418;8.728;2023-11-21T06:52:57;7.10;;;5.05;;
23561;SDS011;11959;49.418;8.728;2023-11-21T06:55:23;7.30;;;5.43;;
23561;SDS011;11959;49.418;8.728;2023-11-21T06:57:48;6.50;;;5.43;;
23561;SDS011;11959;49.418;8.728;2023-11-21T07:00:17;7.38;;;5.70;;
23561;SDS011;11959;49.418;8.728;2023-11-21T07:02:44;6.70;;;5.30;;
23561;SDS011;11959;49.418;8.728;2023-11-21T07:05:09;7.78;;;5.97;;
23561;SDS011;11959;49.418;8.728;2023-11-21T07:07:36;9.13;;;6.00;;
23561;SDS011;11959;49.418;8.728;2023-11-21T07:10:02;10.88;;;7.15;;
23561;SDS011;11959;49.418;8.728;2023-11-21T07:12:29;10.13;;;7.10;;
23561;SDS011;11959;49.418;8.728;2023-11-21T07:14:56;9.85;;;6.53;;
23561;SDS011;11959;49.418;8.728;2023-11-21T07:17:22;8.32;;;6.18;;
23561;SDS011;11959;49.418;8.728;2023-11-21T07:19:49;7.80;;;6.72;;
23561;SDS011;11959;49.418;8.728;2023-11-21T07:22:15;8.73;;;6.80;;
23561;SDS011;11959;49.418;8.728;2023-11-21T07:24:47;11.02;;;7.78;;
23561;SDS011;11959;49.418;8.728;2023-11-21T07:27:15;9.98;;;7.65;;
23561;SDS011;11959;49.418;8.728;2023-11-21T07:29:40;10.52;;;8.07;;
23561;SDS011;11959;49.418;8.728;2023-11-21T07:32:06;10.52;;;8.13;;
23561;SDS011;11959;49.418;8.728;2023-11-21T07:34:34;10.43;;;7.85;;
23561;SDS011;11959;49.418;8.728;2023-11-21T07:37:00;11.77;;;8.50;;
23561;SDS011;11959;49.418;8.728;2023-11-21T07:39:25;13.70;;;8.82;;
23561;SDS011;11959;49.418;8.728;2023-11-21T07:41:51;10.70;;;8.20;;
23561;SDS011;11959;49.418;8.728;2023-11-21T07:44:17;12.20;;;8.13;;
23561;SDS011;11959;49.418;8.728;2023-11-21T07:46:42;13.95;;;8.75;;
23561;SDS011;11959;49.418;8.728;2023-11-21T07:49:09;12.23;;;8.95;;
23561;SDS011;11959;49.418;8.728;2023-11-21T07:51:35;12.15;;;10.20;;
23561;SDS011;11959;49.418;8.728;2023-11-21T07:54:00;13.57;;;9.88;;
23561;SDS011;11959;49.418;8.728;2023-11-21T07:56:26;16.33;;;12.35;;
23561;SDS011;11959;49.418;8.728;2023-11-21T07:58:52;15.32;;;10.88;;
23561;SDS011;11959;49.418;8.728;2023-11-21T08:01:17;13.60;;;9.68;;
23561;SDS011;11959;49.418;8.728;2023-11-21T08:03:43;11.75;;;8.68;;
23561;SDS011;11959;49.418;8.728;2023-11-21T08:06:09;10.55;;;8.73;;
23561;SDS011;11959;49.418;8.728;2023-11-21T08:08:34;11.38;;;9.07;;
23561;SDS011;11959;49.418;8.728;2023-11-21T08:11:00;12.02;;;9.20;;
23561;SDS011;11959;49.418;8.728;2023-11-21T08:13:28;10.98;;;8.38;;
23561;SDS011;11959;49.418;8.728;2023-11-21T08:15:56;14.18;;;9.75;;
23561;SDS011;11959;49.418;8.728;2023-11-21T08:18:26;13.23;;;8.63;;
23561;SDS011;11959;49.418;8.728;2023-11-21T08:20:52;12.75;;;8.63;;
23561;SDS011;11959;49.418;8.728;2023-11-21T08:23:20;13.10;;;10.18;;
23561;SDS011;11959;49.418;8.728;2023-11-21T08:25:50;16.42;;;11.15;;
23561;SDS011;11959;49.418;8.728;2023-11-21T08:28:16;14.32;;;9.27;;
23561;SDS011;11959;49.418;8.728;2023-11-21T08:30:42;15.15;;;10.23;;
23561;SDS011;11959;49.418;8.728;2023-11-21T08:33:08;16.10;;;11.98;;
23561;SDS011;11959;49.418;8.728;2023-11-21T08:35:33;19.60;;;12.77;;
23561;SDS011;11959;49.418;8.728;2023-11-21T08:37:59;19.10;;;12.20;;
23561;SDS011;11959;49.418;8.728;2023-11-21T08:40:25;16.25;;;11.45;;
23561;SDS011;11959;49.418;8.728;2023-11-21T08:42:51;15.50;;;11.13;;
23561;SDS011;11959;49.418;8.728;2023-11-21T08:45:20;15.43;;;10.85;;
23561;SDS011;11959;49.418;8.728;2023-11-21T08:47:46;15.88;;;10.95;;
23561;SDS011;11959;49.418;8.728;2023-11-21T08:50:12;17.50;;;11.68;;
23561;SDS011;11959;49.418;8.728;2023-11-21T08:52:39;18.65;;;12.65;;
23561;SDS011;11959;49.418;8.728;2023-11-21T08:55:05;16.23;;;10.55;;
23561;SDS011;11959;49.418;8.728;2023-11-21T08:57:37;16.25;;;11.20;;
23561;SDS011;11959;49.418;8.728;2023-11-21T09:00:04;17.02;;;11.38;;
23561;SDS011;11959;49.418;8.728;2023-11-21T09:02:35;16.13;;;11.27;;
23561;SDS011;11959;49.418;8.728;2023-11-21T09:05:02;18.02;;;12.85;;
23561;SDS011;11959;49.418;8.728;2023-11-21T09:07:29;16.13;;;10.77;;
23561;SDS011;11959;49.418;8.728;2023-11-21T09:09:55;17.25;;;12.57;;
23561;SDS011;11959;49.418;8.728;2023-11-21T09:12:20;16.13;;;11.65;;
23561;SDS011;11959;49.418;8.728;2023-11-21T09:14:46;20.23;;;13.55;;
23561;SDS011;11959;49.418;8.728;2023-11-21T09:17:12;22.42;;;14.57;;
23561;SDS011;11959;49.418;8.728;2023-11-21T09:19:39;14.13;;;8.73;;
23561;SDS011;11959;49.418;8.728;2023-11-21T09:22:05;9.57;;;7.60;;
23561;SDS011;11959;49.418;8.728;2023-11-21T09:24:34;9.30;;;7.00;;
23561;SDS011;11959;49.418;8.728;2023-11-21T09:27:00;11.00;;;6.93;;
23561;SDS011;11959;49.418;8.728;2023-11-21T09:29:26;8.38;;;5.50;;
23561;SDS011;11959;49.418;8.728;2023-11-21T09:31:52;6.25;;;4.95;;
23561;SDS011;11959;49.418;8.728;2023-11-21T09:34:19;11.45;;;7.07;;
23561;SDS011;11959;49.418;8.728;2023-11-21T09:36:48;9.98;;;7.10;;
23561;SDS011;11959;49.418;8.728;2023-11-21T09:39:14;10.27;;;7.15;;
23561;SDS011;11959;49.418;8.728;2023-11-21T09:41:48;10.25;;;7.10;;
23561;SDS011;11959;49.418;8.728;2023-11-21T09:44:30;8.77;;;6.68;;
23561;SDS011;11959;49.418;8.728;2023-11-21T09:47:00;9.38;;;7.10;;
23561;SDS011;11959;49.418;8.728;2023-11-21T09:49:27;10.15;;;6.32;;
23561;SDS011;11959;49.418;8.728;2023-11-21T09:51:54;9.07;;;6.78;;
23561;SDS011;11959;49.418;8.728;2023-11-21T09:54:22;8.10;;;6.15;;
23561;SDS011;11959;49.418;8.728;2023-11-21T09:56:48;8.80;;;6.28;;
23561;SDS011;11959;49.418;8.728;2023-11-21T09:59:15;9.00;;;6.60;;
23561;SDS011;11959;49.418;8.728;2023-11-21T10:01:41;7.40;;;5.32;;
23561;SDS011;11959;49.418;8.728;2023-11-21T10:04:10;9.68;;;6.13;;
23561;SDS011;11959;49.418;8.728;2023-11-21T10:06:39;7.18;;;5.15;;
23561;SDS011;11959;49.418;8.728;2023-11-21T10:09:09;6.47;;;5.07;;
23561;SDS011;11959;49.418;8.728;2023-11-21T10:11:40;6.20;;;4.60;;
23561;SDS011;11959;49.418;8.728;2023-11-21T10:14:07;7.60;;;5.32;;
23561;SDS011;11959;49.418;8.728;2023-11-21T10:16:37;7.50;;;5.35;;
23561;SDS011;11959;49.418;8.728;2023-11-21T10:19:04;7.78;;;5.47;;
23561;SDS011;11959;49.418;8.728;2023-11-21T10:21:34;6.90;;;5.10;;
23561;SDS011;11959;49.418;8.728;2023-11-21T10:24:00;8.07;;;5.68;;
23561;SDS011;11959;49.418;8.728;2023-11-21T10:26:26;5.18;;;4.47;;
23561;SDS011;11959;49.418;8.728;2023-11-21T10:29:00;6.88;;;4.60;;
23561;SDS011;11959;49.418;8.728;2023-11-21T10:31:29;7.35;;;4.57;;
23561;SDS011;11959;49.418;8.728;2023-11-21T10:34:11;6.10;;;4.30;;
23561;SDS011;11959;49.418;8.728;2023-11-21T10:36:40;6.15;;;4.28;;
23561;SDS011;11959;49.418;8.728;2023-11-21T10:39:06;5.00;;;3.70;;
23561;SDS011;11959;49.418;8.728;2023-11-21T10:41:32;6.85;;;4.10;;
23561;SDS011;11959;49.418;8.728;2023-11-21T10:43:58;5.05;;;3.88;;
23561;SDS011;11959;49.418;8.728;2023-11-21T10:46:23;3.97;;;2.75;;
23561;SDS011;11959;49.418;8.728;2023-11-21T10:48:54;2.47;;;1.80;;
23561;SDS011;11959;49.418;8.728;2023-11-21T10:51:21;5.20;;;2.58;;
23561;SDS011;11959;49.418;8.728;2023-11-21T10:53:47;8.13;;;4.10;;
23561;SDS011;11959;49.418;8.728;2023-11-21T10:56:15;7.47;;;4.47;;
23561;SDS011;11959;49.418;8.728;2023-11-21T10:58:45;7.45;;;4.07;;
23561;SDS011;11959;49.418;8.728;2023-11-21T11:01:11;3.83;;;2.30;;
23561;SDS011;11959;49.418;8.728;2023-11-21T11:03:39;2.42;;;1.88;;
23561;SDS011;11959;49.418;8.728;2023-11-21T11:06:06;3.20;;;2.10;;
23561;SDS011;11959;49.418;8.728;2023-11-21T11:08:36;3.47;;;2.22;;
23561;SDS011;11959;49.418;8.728;2023-11-21T11:11:04;4.15;;;2.78;;
23561;SDS011;11959;49.418;8.728;2023-11-21T11:13:34;3.58;;;2.22;;
23561;SDS011;11959;49.418;8.728;2023-11-21T11:16:01;3.95;;;2.63;;
23561;SDS011;11959;49.418;8.728;2023-11-21T11:18:30;3.42;;;2.40;;
23561;SDS011;11959;49.418;8.728;2023-11-21T11:24:13;4.10;;;1.90;;
23561;SDS011;11959;49.418;8.728;2023-11-21T11:26:46;3.60;;;2.42;;
23561;SDS011;11959;49.418;8.728;2023-11-21T11:29:30;3.08;;;2.50;;
23561;SDS011;11959;49.418;8.728;2023-11-21T11:35:26;6.13;;;3.65;;
23561;SDS011;11959;49.418;8.728;2023-11-21T11:38:15;4.75;;;3.20;;
23561;SDS011;11959;49.418;8.728;2023-11-21T11:40:44;6.85;;;4.60;;
23561;SDS011;11959;49.418;8.728;2023-11-21T11:43:11;3.15;;;2.47;;
23561;SDS011;11959;49.418;8.728;2023-11-21T11:45:37;2.53;;;1.85;;
23561;SDS011;11959;49.418;8.728;2023-11-21T11:48:10;3.30;;;1.60;;
23561;SDS011;11959;49.418;8.728;2023-11-21T11:50:42;2.35;;;1.63;;
23561;SDS011;11959;49.418;8.728;2023-11-21T11:53:28;3.38;;;1.80;;
23561;SDS011;11959;49.418;8.728;2023-11-21T11:56:19;2.67;;;1.90;;
23561;SDS011;11959;49.418;8.728;2023-11-21T11:58:53;2.22;;;1.70;;
23561;SDS011;11959;49.418;8.728;2023-11-21T12:01:20;2.47;;;1.42;;
23561;SDS011;11959;49.418;8.728;2023-11-21T12:06:45;3.50;;;1.50;;
23561;SDS011;11959;49.418;8.728;2023-11-21T12:09:17;0.93;;;0.88;;
23561;SDS011;11959;49.418;8.728;2023-11-21T12:11:46;1.00;;;0.60;;
23561;SDS011;11959;49.418;8.728;2023-11-21T12:14:13;1.27;;;0.80;;
23561;SDS011;11959;49.418;8.728;2023-11-21T12:16:40;2.33;;;0.70;;
23561;SDS011;11959;49.418;8.728;2023-11-21T12:19:07;1.73;;;0.80;;
23561;SDS011;11959;49.418;8.728;2023-11-21T12:21:33;0.50;;;0.50;;
23561;SDS011;11959;49.418;8.728;2023-11-21T12:24:01;1.63;;;0.70;;
23561;SDS011;11959;49.418;8.728;2023-11-21T12:26:26;0.77;;;0.57;;
23561;SDS011;11959;49.418;8.728;2023-11-21T12:28:52;1.88;;;0.55;;
23561;SDS011;11959;49.418;8.728;2023-11-21T12:31:22;0.70;;;0.50;;
23561;SDS011;11959;49.418;8.728;2023-11-21T12:33:48;0.70;;;0.50;;
23561;SDS011;11959;49.418;8.728;2023-11-21T12:36:14;1.58;;;0.60;;
23561;SDS011;11959;49.418;8.728;2023-11-21T12:38:41;1.25;;;0.55;;
23561;SDS011;11959;49.418;8.728;2023-11-21T12:41:07;0.40;;;0.38;;
23561;SDS011;11959;49.418;8.728;2023-11-21T12:43:33;0.60;;;0.60;;
23561;SDS011;11959;49.418;8.728;2023-11-21T12:46:12;3.55;;;0.70;;
23561;SDS011;11959;49.418;8.728;2023-11-21T12:48:43;1.88;;;0.70;;
23561;SDS011;11959;49.418;8.728;2023-11-21T12:51:11;2.03;;;0.63;;
23561;SDS011;11959;49.418;8.728;2023-11-21T12:53:37;1.08;;;0.70;;
23561;SDS011;11959;49.418;8.728;2023-11-21T12:56:21;0.85;;;0.60;;
23561;SDS011;11959;49.418;8.728;2023-11-21T12:58:50;1.02;;;0.57;;
23561;SDS011;11959;49.418;8.728;2023-11-21T13:01:19;0.80;;;0.55;;
23561;SDS011;11959;49.418;8.728;2023-11-21T13:03:47;1.55;;;0.63;;
23561;SDS011;11959;49.418;8.728;2023-11-21T13:06:16;0.93;;;0.68;;
23561;SDS011;11959;49.418;8.728;2023-11-21T13:08:51;1.63;;;0.65;;
23561;SDS011;11959;49.418;8.728;2023-11-21T13:11:17;1.73;;;0.70;;
23561;SDS011;11959;49.418;8.728;2023-11-21T13:13:51;2.15;;;0.70;;
23561;SDS011;11959;49.418;8.728;2023-11-21T13:16:18;1.33;;;0.70;;
23561;SDS011;11959;49.418;8.728;2023-11-21T13:18:45;1.50;;;0.57;;
23561;SDS011;11959;49.418;8.728;2023-11-21T13:21:11;1.77;;;0.57;;
23561;SDS011;11959;49.418;8.728;2023-11-21T13:23:41;1.98;;;0.75;;
23561;SDS011;11959;49.418;8.728;2023-11-21T13:26:07;1.67;;;1.02;;
23561;SDS011;11959;49.418;8.728;2023-11-21T13:28:34;0.95;;;0.60;;
23561;SDS011;11959;49.418;8.728;2023-11-21T13:31:02;4.25;;;0.93;;
23561;SDS011;11959;49.418;8.728;2023-11-21T13:33:34;1.85;;;0.73;;
23561;SDS011;11959;49.418;8.728;2023-11-21T13:36:02;1.48;;;0.70;;
23561;SDS011;11959;49.418;8.728;2023-11-21T13:38:32;0.93;;;0.57;;
23561;SDS011;11959;49.418;8.728;2023-11-21T13:41:00;2.13;;;0.65;;
23561;SDS011;11959;49.418;8.728;2023-11-21T13:43:26;1.85;;;0.63;;
23561;SDS011;11959;49.418;8.728;2023-11-21T13:45:53;2.20;;;0.80;;
23561;SDS011;11959;49.418;8.728;2023-11-21T13:48:29;1.63;;;0.90;;
23561;SDS011;11959;49.418;8.728;2023-11-21T13:51:05;2.08;;;1.10;;
23561;SDS011;11959;49.418;8.728;2023-11-21T13:53:45;1.48;;;1.02;;
23561;SDS011;11959;49.418;8.728;2023-11-21T13:56:14;1.98;;;0.90;;
23561;SDS011;11959;49.418;8.728;2023-11-21T13:58:48;1.63;;;0.88;;
23561;SDS011;11959;49.418;8.728;2023-11-21T14:01:19;3.20;;;1.20;;
23561;SDS011;11959;49.418;8.728;2023-11-21T14:03:54;2.88;;;1.20;;
23561;SDS011;11959;49.418;8.728;2023-11-21T14:06:33;3.60;;;1.40;;
23561;SDS011;11959;49.418;8.728;2023-11-21T14:09:05;3.05;;;1.25;;
23561;SDS011;11959;49.418;8.728;2023-11-21T14:11:32;3.15;;;1.23;;
23561;SDS011;11959;49.418;8.728;2023-11-21T14:13:59;3.60;;;1.20;;
23561;SDS011;11959;49.418;8.728;2023-11-21T14:16:25;3.25;;;1.42;;
23561;SDS011;11959;49.418;8.728;2023-11-21T14:18:50;2.50;;;1.23;;
23561;SDS011;11959;49.418;8.728;2023-11-21T14:21:29;1.63;;;1.10;;
23561;SDS011;11959;49.418;8.728;2023-11-21T14:23:54;2.13;;;1.10;;
23561;SDS011;11959;49.418;8.728;2023-11-21T14:26:20;3.00;;;1.10;;
23561;SDS011;11959;49.418;8.728;2023-11-21T14:28:49;2.08;;;1.20;;
23561;SDS011;11959;49.418;8.728;2023-11-21T14:31:16;4.00;;;1.27;;
23561;SDS011;11959;49.418;8.728;2023-11-21T14:33:42;3.17;;;1.50;;
23561;SDS011;11959;49.418;8.728;2023-11-21T14:36:10;5.60;;;2.15;;
23561;SDS011;11959;49.418;8.728;2023-11-21T14:38:36;6.32;;;1.98;;
23561;SDS011;11959;49.418;8.728;2023-11-21T14:41:05;4.72;;;1.92;;
23561;SDS011;11959;49.418;8.728;2023-11-21T14:43:34;6.32;;;2.55;;
23561;SDS011;11959;49.418;8.728;2023-11-21T14:46:01;4.80;;;2.30;;
23561;SDS011;11959;49.418;8.728;2023-11-21T14:48:35;5.05;;;2.45;;
23561;SDS011;11959;49.418;8.728;2023-11-21T14:51:21;5.13;;;2.00;;
23561;SDS011;11959;49.418;8.728;2023-11-21T14:53:55;6.72;;;2.30;;
23561;SDS011;11959;49.418;8.728;2023-11-21T14:56:28;6.53;;;2.88;;